sensor_id;sensor_type;location;lat;lon;timestamp;P1;durP1;ratioP1;P2;durP2;ratioP2
61840;SDS011;47773;53.174;6.614;2023-08-07T00:00:33;16.52;;;6.80;;
61840;SDS011;47773;53.174;6.614;2023-08-07T00:02:59;18.05;;;6.68;;
61840;SDS011;47773;53.174;6.614;2023-08-07T00:05:24;23.95;;;6.60;;
61840;SDS011;47773;53.174;6.614;2023-08-07T00:07:50;17.65;;;6.40;;
61840;SDS011;47773;53.174;6.614;2023-08-07T00:10:16;17.10;;;6.47;;
61840;SDS011;47773;53.174;6.614;2023-08-07T00:12:42;17.35;;;6.68;;
61840;SDS011;47773;53.174;6.614;2023-08-07T00:15:08;20.20;;;6.82;;
61840;SDS011;47773;53.174;6.614;2023-08-07T00:17:35;17.95;;;6.85;;
61840;SDS011;47773;53.174;6.614;2023-08-07T00:20:01;25.88;;;7.25;;
61840;SDS011;47773;53.174;6.614;2023-08-07T00:22:27;15.48;;;7.50;;
61840;SDS011;47773;53.174;6.614;2023-08-07T00:24:53;23.45;;;7.25;;
61840;SDS011;47773;53.174;6.614;2023-08-07T00:27:19;19.95;;;6.60;;
61840;SDS011;47773;53.174;6.614;2023-08-07T00:29:44;15.45;;;6.38;;
61840;SDS011;47773;53.174;6.614;2023-08-07T00:32:10;21.20;;;6.20;;
61840;SDS011;47773;53.174;6.614;2023-08-07T00:34:35;22.67;;;6.53;;
61840;SDS011;47773;53.174;6.614;2023-08-07T00:37:01;13.93;;;6.15;;
61840;SDS011;47773;53.174;6.614;2023-08-07T00:39:27;16.05;;;6.10;;
61840;SDS011;47773;53.174;6.614;2023-08-07T00:41:53;15.70;;;6.35;;
61840;SDS011;47773;53.174;6.614;2023-08-07T00:44:19;19.55;;;5.80;;
61840;SDS011;47773;53.174;6.614;2023-08-07T00:46:44;16.13;;;5.38;;
61840;SDS011;47773;53.174;6.614;2023-08-07T00:49:11;14.07;;;5.63;;
61840;SDS011;47773;53.174;6.614;2023-08-07T00:51:37;19.08;;;4.68;;
61840;SDS011;47773;53.174;6.614;2023-08-07T00:54:04;15.93;;;5.13;;
61840;SDS011;47773;53.174;6.614;2023-08-07T00:56:31;14.63;;;5.50;;
61840;SDS011;47773;53.174;6.614;2023-08-07T00:59:00;12.40;;;4.75;;
61840;SDS011;47773;53.174;6.614;2023-08-07T01:01:26;15.95;;;4.30;;
61840;SDS011;47773;53.174;6.614;2023-08-07T01:03:52;17.92;;;5.35;;
61840;SDS011;47773;53.174;6.614;2023-08-07T01:06:18;12.05;;;4.60;;
61840;SDS011;47773;53.174;6.614;2023-08-07T01:08:44;9.85;;;4.53;;
61840;SDS011;47773;53.174;6.614;2023-08-07T01:16:46;16.48;;;4.63;;
61840;SDS011;47773;53.174;6.614;2023-08-07T01:19:28;10.98;;;4.50;;
61840;SDS011;47773;53.174;6.614;2023-08-07T01:22:08;18.10;;;4.88;;
61840;SDS011;47773;53.174;6.614;2023-08-07T01:24:35;10.43;;;4.82;;
61840;SDS011;47773;53.174;6.614;2023-08-07T01:27:14;12.77;;;4.43;;
61840;SDS011;47773;53.174;6.614;2023-08-07T01:29:46;14.82;;;4.70;;
61840;SDS011;47773;53.174;6.614;2023-08-07T01:35:16;11.65;;;4.65;;
61840;SDS011;47773;53.174;6.614;2023-08-07T01:37:42;14.40;;;4.57;;
61840;SDS011;47773;53.174;6.614;2023-08-07T01:40:10;21.95;;;4.50;;
61840;SDS011;47773;53.174;6.614;2023-08-07T01:42:37;20.60;;;5.07;;
61840;SDS011;47773;53.174;6.614;2023-08-07T01:45:06;14.85;;;4.70;;
61840;SDS011;47773;53.174;6.614;2023-08-07T01:47:32;16.20;;;4.38;;
61840;SDS011;47773;53.174;6.614;2023-08-07T01:49:57;13.48;;;4.75;;
61840;SDS011;47773;53.174;6.614;2023-08-07T01:52:23;18.45;;;4.57;;
61840;SDS011;47773;53.174;6.614;2023-08-07T01:54:49;16.15;;;4.82;;
61840;SDS011;47773;53.174;6.614;2023-08-07T01:57:14;16.55;;;5.15;;
61840;SDS011;47773;53.174;6.614;2023-08-07T01:59:40;18.42;;;4.80;;
61840;SDS011;47773;53.174;6.614;2023-08-07T02:02:05;13.90;;;4.60;;
61840;SDS011;47773;53.174;6.614;2023-08-07T02:04:31;19.10;;;4.65;;
61840;SDS011;47773;53.174;6.614;2023-08-07T02:06:57;13.57;;;4.28;;
61840;SDS011;47773;53.174;6.614;2023-08-07T02:09:22;13.77;;;4.47;;
61840;SDS011;47773;53.174;6.614;2023-08-07T02:11:48;12.80;;;4.10;;
61840;SDS011;47773;53.174;6.614;2023-08-07T02:14:14;15.43;;;4.55;;
61840;SDS011;47773;53.174;6.614;2023-08-07T02:16:39;21.38;;;3.95;;
61840;SDS011;47773;53.174;6.614;2023-08-07T02:19:05;19.02;;;4.43;;
61840;SDS011;47773;53.174;6.614;2023-08-07T02:21:31;15.75;;;4.10;;
61840;SDS011;47773;53.174;6.614;2023-08-07T02:23:57;17.45;;;4.10;;
61840;SDS011;47773;53.174;6.614;2023-08-07T02:26:22;18.52;;;4.40;;
61840;SDS011;47773;53.174;6.614;2023-08-07T02:28:48;23.83;;;4.57;;
61840;SDS011;47773;53.174;6.614;2023-08-07T02:31:14;19.27;;;4.28;;
61840;SDS011;47773;53.174;6.614;2023-08-07T02:33:39;23.10;;;4.32;;
61840;SDS011;47773;53.174;6.614;2023-08-07T02:36:06;18.25;;;4.13;;
61840;SDS011;47773;53.174;6.614;2023-08-07T02:38:32;19.27;;;4.15;;
61840;SDS011;47773;53.174;6.614;2023-08-07T02:40:58;17.85;;;3.47;;
61840;SDS011;47773;53.174;6.614;2023-08-07T02:43:23;26.00;;;4.38;;
61840;SDS011;47773;53.174;6.614;2023-08-07T02:45:49;19.98;;;3.80;;
61840;SDS011;47773;53.174;6.614;2023-08-07T02:48:15;25.73;;;4.43;;
61840;SDS011;47773;53.174;6.614;2023-08-07T02:50:42;25.80;;;4.72;;
61840;SDS011;47773;53.174;6.614;2023-08-07T02:53:08;21.25;;;3.85;;
61840;SDS011;47773;53.174;6.614;2023-08-07T02:55:34;24.35;;;4.00;;
61840;SDS011;47773;53.174;6.614;2023-08-07T02:58:00;31.45;;;4.95;;
61840;SDS011;47773;53.174;6.614;2023-08-07T03:00:25;21.90;;;4.32;;
61840;SDS011;47773;53.174;6.614;2023-08-07T03:02:51;31.05;;;3.90;;
61840;SDS011;47773;53.174;6.614;2023-08-07T03:05:17;14.57;;;4.20;;
61840;SDS011;47773;53.174;6.614;2023-08-07T03:07:42;25.15;;;4.95;;
61840;SDS011;47773;53.174;6.614;2023-08-07T03:10:08;24.33;;;4.15;;
61840;SDS011;47773;53.174;6.614;2023-08-07T03:12:34;28.73;;;4.53;;
61840;SDS011;47773;53.174;6.614;2023-08-07T03:14:59;25.58;;;4.32;;
61840;SDS011;47773;53.174;6.614;2023-08-07T03:17:25;20.52;;;4.88;;
61840;SDS011;47773;53.174;6.614;2023-08-07T03:19:51;23.08;;;4.55;;
61840;SDS011;47773;53.174;6.614;2023-08-07T03:22:16;28.42;;;4.97;;
61840;SDS011;47773;53.174;6.614;2023-08-07T03:24:46;18.55;;;4.47;;
61840;SDS011;47773;53.174;6.614;2023-08-07T03:27:12;21.63;;;4.97;;
61840;SDS011;47773;53.174;6.614;2023-08-07T03:29:38;20.17;;;4.65;;
61840;SDS011;47773;53.174;6.614;2023-08-07T03:32:04;22.88;;;4.65;;
61840;SDS011;47773;53.174;6.614;2023-08-07T03:34:30;22.42;;;4.78;;
61840;SDS011;47773;53.174;6.614;2023-08-07T03:36:55;19.02;;;4.55;;
61840;SDS011;47773;53.174;6.614;2023-08-07T03:39:21;30.15;;;5.13;;
61840;SDS011;47773;53.174;6.614;2023-08-07T03:41:47;19.35;;;4.30;;
61840;SDS011;47773;53.174;6.614;2023-08-07T03:44:12;17.92;;;4.55;;
61840;SDS011;47773;53.174;6.614;2023-08-07T03:46:38;18.80;;;4.50;;
61840;SDS011;47773;53.174;6.614;2023-08-07T03:49:04;22.65;;;4.45;;
61840;SDS011;47773;53.174;6.614;2023-08-07T03:51:30;15.70;;;3.67;;
61840;SDS011;47773;53.174;6.614;2023-08-07T03:53:57;21.05;;;4.32;;
61840;SDS011;47773;53.174;6.614;2023-08-07T03:56:22;14.43;;;3.85;;
61840;SDS011;47773;53.174;6.614;2023-08-07T03:58:48;17.60;;;3.67;;
61840;SDS011;47773;53.174;6.614;2023-08-07T04:01:15;20.83;;;4.25;;
61840;SDS011;47773;53.174;6.614;2023-08-07T04:03:41;26.55;;;5.10;;
61840;SDS011;47773;53.174;6.614;2023-08-07T04:06:07;21.35;;;4.00;;
61840;SDS011;47773;53.174;6.614;2023-08-07T04:08:33;12.10;;;3.67;;
61840;SDS011;47773;53.174;6.614;2023-08-07T04:13:28;17.58;;;3.30;;
61840;SDS011;47773;53.174;6.614;2023-08-07T04:15:54;11.43;;;3.63;;
61840;SDS011;47773;53.174;6.614;2023-08-07T04:18:20;19.58;;;4.32;;
61840;SDS011;47773;53.174;6.614;2023-08-07T04:20:52;20.98;;;4.38;;
61840;SDS011;47773;53.174;6.614;2023-08-07T04:25:44;22.83;;;4.35;;
61840;SDS011;47773;53.174;6.614;2023-08-07T04:28:11;24.67;;;4.65;;
61840;SDS011;47773;53.174;6.614;2023-08-07T04:30:36;21.70;;;4.18;;
61840;SDS011;47773;53.174;6.614;2023-08-07T04:33:02;16.58;;;4.15;;
61840;SDS011;47773;53.174;6.614;2023-08-07T04:35:28;26.05;;;5.43;;
61840;SDS011;47773;53.174;6.614;2023-08-07T04:37:53;27.52;;;4.40;;
61840;SDS011;47773;53.174;6.614;2023-08-07T04:40:19;25.38;;;4.95;;
61840;SDS011;47773;53.174;6.614;2023-08-07T04:42:45;19.70;;;4.50;;
61840;SDS011;47773;53.174;6.614;2023-08-07T04:45:10;22.42;;;5.22;;
61840;SDS011;47773;53.174;6.614;2023-08-07T04:47:37;24.95;;;4.88;;
61840;SDS011;47773;53.174;6.614;2023-08-07T04:50:02;25.75;;;5.32;;
61840;SDS011;47773;53.174;6.614;2023-08-07T04:52:28;28.83;;;4.75;;
61840;SDS011;47773;53.174;6.614;2023-08-07T04:54:54;25.10;;;5.35;;
61840;SDS011;47773;53.174;6.614;2023-08-07T04:57:20;46.90;;;5.97;;
61840;SDS011;47773;53.174;6.614;2023-08-07T04:59:45;31.42;;;7.40;;
61840;SDS011;47773;53.174;6.614;2023-08-07T05:02:11;23.70;;;5.18;;
61840;SDS011;47773;53.174;6.614;2023-08-07T05:04:36;26.73;;;5.82;;
61840;SDS011;47773;53.174;6.614;2023-08-07T05:07:02;24.52;;;5.53;;
61840;SDS011;47773;53.174;6.614;2023-08-07T05:09:28;29.55;;;5.97;;
61840;SDS011;47773;53.174;6.614;2023-08-07T05:11:54;40.95;;;5.35;;
61840;SDS011;47773;53.174;6.614;2023-08-07T05:14:20;36.50;;;5.15;;
61840;SDS011;47773;53.174;6.614;2023-08-07T05:16:46;27.75;;;5.03;;
61840;SDS011;47773;53.174;6.614;2023-08-07T05:19:11;26.58;;;4.68;;
61840;SDS011;47773;53.174;6.614;2023-08-07T05:21:37;27.42;;;5.05;;
61840;SDS011;47773;53.174;6.614;2023-08-07T05:24:03;24.52;;;5.55;;
61840;SDS011;47773;53.174;6.614;2023-08-07T05:26:30;33.75;;;5.30;;
61840;SDS011;47773;53.174;6.614;2023-08-07T05:28:55;30.80;;;5.47;;
61840;SDS011;47773;53.174;6.614;2023-08-07T05:31:23;32.75;;;5.25;;
61840;SDS011;47773;53.174;6.614;2023-08-07T05:33:49;23.17;;;5.35;;
61840;SDS011;47773;53.174;6.614;2023-08-07T05:36:15;37.42;;;6.40;;
61840;SDS011;47773;53.174;6.614;2023-08-07T05:38:41;43.15;;;5.28;;
61840;SDS011;47773;53.174;6.614;2023-08-07T05:41:08;29.98;;;5.35;;
61840;SDS011;47773;53.174;6.614;2023-08-07T05:43:34;31.27;;;5.70;;
61840;SDS011;47773;53.174;6.614;2023-08-07T05:45:59;39.35;;;7.35;;
61840;SDS011;47773;53.174;6.614;2023-08-07T05:48:25;39.35;;;5.97;;
61840;SDS011;47773;53.174;6.614;2023-08-07T05:50:51;36.83;;;6.28;;
61840;SDS011;47773;53.174;6.614;2023-08-07T05:53:17;40.42;;;5.75;;
61840;SDS011;47773;53.174;6.614;2023-08-07T05:55:44;31.70;;;6.35;;
61840;SDS011;47773;53.174;6.614;2023-08-07T05:58:09;32.50;;;5.18;;
61840;SDS011;47773;53.174;6.614;2023-08-07T06:00:35;43.63;;;5.80;;
61840;SDS011;47773;53.174;6.614;2023-08-07T06:03:01;31.42;;;6.35;;
61840;SDS011;47773;53.174;6.614;2023-08-07T06:05:26;35.28;;;5.43;;
61840;SDS011;47773;53.174;6.614;2023-08-07T06:07:52;30.73;;;5.00;;
61840;SDS011;47773;53.174;6.614;2023-08-07T06:10:18;32.25;;;5.43;;
61840;SDS011;47773;53.174;6.614;2023-08-07T06:12:43;36.58;;;5.40;;
61840;SDS011;47773;53.174;6.614;2023-08-07T06:15:09;28.38;;;4.55;;
61840;SDS011;47773;53.174;6.614;2023-08-07T06:17:35;40.40;;;5.28;;
61840;SDS011;47773;53.174;6.614;2023-08-07T06:20:00;31.25;;;5.03;;
61840;SDS011;47773;53.174;6.614;2023-08-07T06:22:26;34.67;;;4.85;;
61840;SDS011;47773;53.174;6.614;2023-08-07T06:24:52;28.05;;;5.38;;
61840;SDS011;47773;53.174;6.614;2023-08-07T06:27:17;30.42;;;5.00;;
61840;SDS011;47773;53.174;6.614;2023-08-07T06:29:43;34.47;;;5.13;;
61840;SDS011;47773;53.174;6.614;2023-08-07T06:32:09;34.33;;;5.20;;
61840;SDS011;47773;53.174;6.614;2023-08-07T06:34:35;37.53;;;4.63;;
61840;SDS011;47773;53.174;6.614;2023-08-07T06:37:03;20.48;;;3.88;;
61840;SDS011;47773;53.174;6.614;2023-08-07T06:39:29;24.27;;;3.95;;
61840;SDS011;47773;53.174;6.614;2023-08-07T06:41:56;34.28;;;3.83;;
61840;SDS011;47773;53.174;6.614;2023-08-07T06:44:22;24.77;;;4.32;;
61840;SDS011;47773;53.174;6.614;2023-08-07T06:46:47;33.20;;;4.85;;
61840;SDS011;47773;53.174;6.614;2023-08-07T06:49:13;34.78;;;4.68;;
61840;SDS011;47773;53.174;6.614;2023-08-07T06:51:38;23.27;;;3.75;;
61840;SDS011;47773;53.174;6.614;2023-08-07T06:54:04;24.15;;;3.85;;
61840;SDS011;47773;53.174;6.614;2023-08-07T06:56:30;20.98;;;3.50;;
61840;SDS011;47773;53.174;6.614;2023-08-07T06:58:55;23.23;;;3.47;;
61840;SDS011;47773;53.174;6.614;2023-08-07T07:01:21;15.00;;;3.35;;
61840;SDS011;47773;53.174;6.614;2023-08-07T07:03:47;21.92;;;4.10;;
61840;SDS011;47773;53.174;6.614;2023-08-07T07:06:17;24.83;;;3.80;;
61840;SDS011;47773;53.174;6.614;2023-08-07T07:08:43;25.98;;;3.58;;
61840;SDS011;47773;53.174;6.614;2023-08-07T07:11:09;29.00;;;3.83;;
61840;SDS011;47773;53.174;6.614;2023-08-07T07:13:35;31.40;;;3.90;;
61840;SDS011;47773;53.174;6.614;2023-08-07T07:16:00;29.75;;;3.95;;
61840;SDS011;47773;53.174;6.614;2023-08-07T07:18:26;26.75;;;3.65;;
61840;SDS011;47773;53.174;6.614;2023-08-07T07:20:56;20.40;;;3.28;;
61840;SDS011;47773;53.174;6.614;2023-08-07T07:23:26;19.50;;;3.47;;
61840;SDS011;47773;53.174;6.614;2023-08-07T07:25:52;15.23;;;4.00;;
61840;SDS011;47773;53.174;6.614;2023-08-07T07:28:18;20.88;;;3.80;;
61840;SDS011;47773;53.174;6.614;2023-08-07T07:30:44;21.67;;;4.38;;
61840;SDS011;47773;53.174;6.614;2023-08-07T07:33:09;30.65;;;4.15;;
61840;SDS011;47773;53.174;6.614;2023-08-07T07:35:38;29.92;;;4.60;;
61840;SDS011;47773;53.174;6.614;2023-08-07T07:38:05;33.92;;;4.38;;
61840;SDS011;47773;53.174;6.614;2023-08-07T07:40:31;23.52;;;4.07;;
61840;SDS011;47773;53.174;6.614;2023-08-07T07:42:57;28.02;;;4.47;;
61840;SDS011;47773;53.174;6.614;2023-08-07T07:45:23;26.27;;;4.68;;
61840;SDS011;47773;53.174;6.614;2023-08-07T07:47:48;21.77;;;4.38;;
61840;SDS011;47773;53.174;6.614;2023-08-07T07:50:14;40.05;;;4.75;;
61840;SDS011;47773;53.174;6.614;2023-08-07T07:52:40;31.75;;;4.97;;
61840;SDS011;47773;53.174;6.614;2023-08-07T07:55:05;24.38;;;4.63;;
61840;SDS011;47773;53.174;6.614;2023-08-07T07:57:33;32.55;;;4.82;;
61840;SDS011;47773;53.174;6.614;2023-08-07T07:59:59;28.27;;;4.38;;
61840;SDS011;47773;53.174;6.614;2023-08-07T08:02:26;32.13;;;5.47;;
61840;SDS011;47773;53.174;6.614;2023-08-07T08:04:51;32.08;;;5.18;;
61840;SDS011;47773;53.174;6.614;2023-08-07T08:07:17;28.73;;;5.20;;
61840;SDS011;47773;53.174;6.614;2023-08-07T08:09:43;27.63;;;5.68;;
61840;SDS011;47773;53.174;6.614;2023-08-07T08:12:09;26.17;;;5.40;;
61840;SDS011;47773;53.174;6.614;2023-08-07T08:14:35;31.83;;;5.50;;
61840;SDS011;47773;53.174;6.614;2023-08-07T08:17:01;32.03;;;5.55;;
61840;SDS011;47773;53.174;6.614;2023-08-07T08:19:27;34.40;;;6.28;;
61840;SDS011;47773;53.174;6.614;2023-08-07T08:21:52;33.30;;;6.03;;
61840;SDS011;47773;53.174;6.614;2023-08-07T08:24:18;30.67;;;5.65;;
61840;SDS011;47773;53.174;6.614;2023-08-07T08:26:44;25.40;;;5.28;;
61840;SDS011;47773;53.174;6.614;2023-08-07T08:29:13;25.63;;;4.95;;
61840;SDS011;47773;53.174;6.614;2023-08-07T08:31:39;28.70;;;5.13;;
61840;SDS011;47773;53.174;6.614;2023-08-07T08:34:05;32.83;;;5.05;;
61840;SDS011;47773;53.174;6.614;2023-08-07T08:36:31;32.53;;;5.88;;
61840;SDS011;47773;53.174;6.614;2023-08-07T08:38:56;29.45;;;5.25;;
61840;SDS011;47773;53.174;6.614;2023-08-07T08:41:22;29.25;;;5.20;;
61840;SDS011;47773;53.174;6.614;2023-08-07T08:43:48;35.50;;;5.63;;
61840;SDS011;47773;53.174;6.614;2023-08-07T08:46:18;35.55;;;4.80;;
61840;SDS011;47773;53.174;6.614;2023-08-07T08:48:47;29.45;;;5.63;;
61840;SDS011;47773;53.174;6.614;2023-08-07T08:51:16;32.80;;;5.20;;
61840;SDS011;47773;53.174;6.614;2023-08-07T08:53:46;29.90;;;5.30;;
61840;SDS011;47773;53.174;6.614;2023-08-07T08:56:14;30.77;;;5.32;;
61840;SDS011;47773;53.174;6.614;2023-08-07T08:58:41;35.58;;;4.90;;
61840;SDS011;47773;53.174;6.614;2023-08-07T09:01:08;22.75;;;4.18;;
61840;SDS011;47773;53.174;6.614;2023-08-07T09:03:34;27.15;;;4.63;;
61840;SDS011;47773;53.174;6.614;2023-08-07T09:06:01;23.95;;;3.88;;
61840;SDS011;47773;53.174;6.614;2023-08-07T09:08:27;27.77;;;4.30;;
61840;SDS011;47773;53.174;6.614;2023-08-07T09:10:56;26.40;;;3.83;;
61840;SDS011;47773;53.174;6.614;2023-08-07T09:13:22;27.13;;;4.60;;
61840;SDS011;47773;53.174;6.614;2023-08-07T09:15:52;23.95;;;4.35;;
61840;SDS011;47773;53.174;6.614;2023-08-07T09:18:19;27.90;;;4.13;;
61840;SDS011;47773;53.174;6.614;2023-08-07T09:20:45;29.48;;;4.45;;
61840;SDS011;47773;53.174;6.614;2023-08-07T09:23:11;22.30;;;4.90;;
61840;SDS011;47773;53.174;6.614;2023-08-07T09:25:37;21.23;;;3.70;;
61840;SDS011;47773;53.174;6.614;2023-08-07T09:28:06;31.92;;;4.43;;
61840;SDS011;47773;53.174;6.614;2023-08-07T09:30:35;22.88;;;3.72;;
61840;SDS011;47773;53.174;6.614;2023-08-07T09:33:03;22.23;;;4.13;;
61840;SDS011;47773;53.174;6.614;2023-08-07T09:35:30;33.05;;;4.03;;
61840;SDS011;47773;53.174;6.614;2023-08-07T09:37:59;25.60;;;4.88;;
61840;SDS011;47773;53.174;6.614;2023-08-07T09:40:26;24.67;;;4.93;;
61840;SDS011;47773;53.174;6.614;2023-08-07T09:42:53;20.42;;;3.47;;
61840;SDS011;47773;53.174;6.614;2023-08-07T09:47:46;24.15;;;4.22;;
61840;SDS011;47773;53.174;6.614;2023-08-07T09:50:15;25.80;;;4.43;;
61840;SDS011;47773;53.174;6.614;2023-08-07T09:52:50;33.75;;;4.50;;
61840;SDS011;47773;53.174;6.614;2023-08-07T09:55:16;26.17;;;4.10;;
61840;SDS011;47773;53.174;6.614;2023-08-07T09:57:42;14.23;;;3.78;;
61840;SDS011;47773;53.174;6.614;2023-08-07T10:00:09;23.23;;;4.20;;
61840;SDS011;47773;53.174;6.614;2023-08-07T10:02:40;26.50;;;3.92;;
61840;SDS011;47773;53.174;6.614;2023-08-07T10:05:11;20.05;;;4.38;;
61840;SDS011;47773;53.174;6.614;2023-08-07T10:07:38;21.13;;;4.05;;
61840;SDS011;47773;53.174;6.614;2023-08-07T10:10:04;24.48;;;3.83;;
61840;SDS011;47773;53.174;6.614;2023-08-07T10:12:31;23.48;;;4.55;;
61840;SDS011;47773;53.174;6.614;2023-08-07T10:14:58;31.63;;;5.05;;
61840;SDS011;47773;53.174;6.614;2023-08-07T10:17:25;31.02;;;4.40;;
61840;SDS011;47773;53.174;6.614;2023-08-07T10:19:51;24.33;;;4.13;;
61840;SDS011;47773;53.174;6.614;2023-08-07T10:22:18;30.17;;;4.90;;
61840;SDS011;47773;53.174;6.614;2023-08-07T10:24:45;22.15;;;3.67;;
61840;SDS011;47773;53.174;6.614;2023-08-07T10:27:15;36.05;;;5.10;;
61840;SDS011;47773;53.174;6.614;2023-08-07T10:29:43;24.33;;;3.90;;
61840;SDS011;47773;53.174;6.614;2023-08-07T10:32:11;23.10;;;3.90;;
61840;SDS011;47773;53.174;6.614;2023-08-07T10:34:38;23.00;;;3.75;;
61840;SDS011;47773;53.174;6.614;2023-08-07T10:37:06;24.90;;;4.20;;
61840;SDS011;47773;53.174;6.614;2023-08-07T10:39:33;22.33;;;3.45;;
61840;SDS011;47773;53.174;6.614;2023-08-07T10:41:59;24.90;;;4.03;;
61840;SDS011;47773;53.174;6.614;2023-08-07T10:44:26;25.73;;;4.20;;
61840;SDS011;47773;53.174;6.614;2023-08-07T10:46:56;23.75;;;4.10;;
61840;SDS011;47773;53.174;6.614;2023-08-07T10:52:08;24.25;;;3.97;;
61840;SDS011;47773;53.174;6.614;2023-08-07T10:54:39;23.95;;;3.78;;
61840;SDS011;47773;53.174;6.614;2023-08-07T10:57:11;19.23;;;3.42;;
61840;SDS011;47773;53.174;6.614;2023-08-07T10:59:50;19.38;;;3.17;;
61840;SDS011;47773;53.174;6.614;2023-08-07T11:02:26;15.95;;;2.88;;
61840;SDS011;47773;53.174;6.614;2023-08-07T11:04:54;18.50;;;2.55;;
61840;SDS011;47773;53.174;6.614;2023-08-07T11:07:24;18.38;;;2.78;;
61840;SDS011;47773;53.174;6.614;2023-08-07T11:09:51;22.35;;;2.88;;
61840;SDS011;47773;53.174;6.614;2023-08-07T11:12:18;11.98;;;2.67;;
61840;SDS011;47773;53.174;6.614;2023-08-07T11:14:44;23.65;;;3.65;;
61840;SDS011;47773;53.174;6.614;2023-08-07T11:17:09;25.42;;;3.50;;
61840;SDS011;47773;53.174;6.614;2023-08-07T11:19:35;16.35;;;3.45;;
61840;SDS011;47773;53.174;6.614;2023-08-07T11:22:01;27.13;;;3.65;;
61840;SDS011;47773;53.174;6.614;2023-08-07T11:24:27;20.48;;;3.45;;
61840;SDS011;47773;53.174;6.614;2023-08-07T11:26:53;23.77;;;3.85;;
61840;SDS011;47773;53.174;6.614;2023-08-07T11:29:21;24.00;;;3.80;;
61840;SDS011;47773;53.174;6.614;2023-08-07T11:31:58;17.20;;;3.42;;
61840;SDS011;47773;53.174;6.614;2023-08-07T11:34:24;22.40;;;3.33;;
61840;SDS011;47773;53.174;6.614;2023-08-07T11:36:50;23.35;;;3.30;;
61840;SDS011;47773;53.174;6.614;2023-08-07T11:39:16;27.65;;;3.50;;
61840;SDS011;47773;53.174;6.614;2023-08-07T11:41:43;15.73;;;2.47;;
61840;SDS011;47773;53.174;6.614;2023-08-07T11:44:09;17.42;;;3.42;;
61840;SDS011;47773;53.174;6.614;2023-08-07T11:46:35;22.40;;;3.47;;
61840;SDS011;47773;53.174;6.614;2023-08-07T11:49:01;16.88;;;2.97;;
61840;SDS011;47773;53.174;6.614;2023-08-07T11:51:29;18.50;;;3.13;;
61840;SDS011;47773;53.174;6.614;2023-08-07T11:53:55;21.02;;;3.33;;
61840;SDS011;47773;53.174;6.614;2023-08-07T11:56:23;16.23;;;3.60;;
61840;SDS011;47773;53.174;6.614;2023-08-07T11:58:50;7.75;;;2.20;;
61840;SDS011;47773;53.174;6.614;2023-08-07T12:01:20;13.90;;;2.97;;
61840;SDS011;47773;53.174;6.614;2023-08-07T12:03:57;15.02;;;2.70;;
61840;SDS011;47773;53.174;6.614;2023-08-07T12:06:34;8.48;;;2.08;;
61840;SDS011;47773;53.174;6.614;2023-08-07T12:09:02;11.30;;;2.58;;
61840;SDS011;47773;53.174;6.614;2023-08-07T12:11:31;16.85;;;3.00;;
61840;SDS011;47773;53.174;6.614;2023-08-07T12:13:59;15.00;;;3.35;;
61840;SDS011;47773;53.174;6.614;2023-08-07T12:16:31;18.00;;;3.17;;
61840;SDS011;47773;53.174;6.614;2023-08-07T12:18:58;22.05;;;3.58;;
61840;SDS011;47773;53.174;6.614;2023-08-07T12:21:24;13.23;;;3.63;;
61840;SDS011;47773;53.174;6.614;2023-08-07T12:23:54;19.17;;;3.47;;
61840;SDS011;47773;53.174;6.614;2023-08-07T12:26:20;10.88;;;3.20;;
61840;SDS011;47773;53.174;6.614;2023-08-07T12:28:46;14.57;;;3.20;;
61840;SDS011;47773;53.174;6.614;2023-08-07T12:31:12;14.70;;;2.83;;
61840;SDS011;47773;53.174;6.614;2023-08-07T12:33:37;21.73;;;3.63;;
61840;SDS011;47773;53.174;6.614;2023-08-07T12:36:03;15.80;;;3.28;;
61840;SDS011;47773;53.174;6.614;2023-08-07T12:38:29;20.13;;;3.55;;
61840;SDS011;47773;53.174;6.614;2023-08-07T12:40:55;21.52;;;3.50;;
61840;SDS011;47773;53.174;6.614;2023-08-07T12:43:21;20.40;;;4.25;;
61840;SDS011;47773;53.174;6.614;2023-08-07T12:45:46;18.83;;;3.50;;
61840;SDS011;47773;53.174;6.614;2023-08-07T12:48:12;23.50;;;3.70;;
61840;SDS011;47773;53.174;6.614;2023-08-07T12:50:38;17.73;;;3.30;;
61840;SDS011;47773;53.174;6.614;2023-08-07T12:53:05;16.67;;;3.28;;
61840;SDS011;47773;53.174;6.614;2023-08-07T12:55:31;16.52;;;3.55;;
61840;SDS011;47773;53.174;6.614;2023-08-07T12:57:57;21.30;;;3.47;;
61840;SDS011;47773;53.174;6.614;2023-08-07T13:00:23;23.15;;;3.65;;
61840;SDS011;47773;53.174;6.614;2023-08-07T13:02:49;13.75;;;3.05;;
61840;SDS011;47773;53.174;6.614;2023-08-07T13:05:16;13.50;;;3.20;;
61840;SDS011;47773;53.174;6.614;2023-08-07T13:07:43;12.32;;;3.20;;
61840;SDS011;47773;53.174;6.614;2023-08-07T13:10:10;18.00;;;3.25;;
61840;SDS011;47773;53.174;6.614;2023-08-07T13:12:37;19.52;;;4.60;;
61840;SDS011;47773;53.174;6.614;2023-08-07T13:15:05;16.42;;;3.35;;
61840;SDS011;47773;53.174;6.614;2023-08-07T13:17:33;19.15;;;4.28;;
61840;SDS011;47773;53.174;6.614;2023-08-07T13:20:00;24.83;;;4.07;;
61840;SDS011;47773;53.174;6.614;2023-08-07T13:22:26;31.77;;;4.20;;
61840;SDS011;47773;53.174;6.614;2023-08-07T13:24:53;26.08;;;4.38;;
61840;SDS011;47773;53.174;6.614;2023-08-07T13:27:19;19.95;;;4.22;;
61840;SDS011;47773;53.174;6.614;2023-08-07T13:29:44;25.10;;;4.60;;
61840;SDS011;47773;53.174;6.614;2023-08-07T13:32:10;20.13;;;4.00;;
61840;SDS011;47773;53.174;6.614;2023-08-07T13:34:36;23.05;;;4.15;;
61840;SDS011;47773;53.174;6.614;2023-08-07T13:37:02;28.50;;;4.85;;
61840;SDS011;47773;53.174;6.614;2023-08-07T13:39:32;22.45;;;4.00;;
61840;SDS011;47773;53.174;6.614;2023-08-07T13:41:58;28.67;;;4.60;;
61840;SDS011;47773;53.174;6.614;2023-08-07T13:44:25;22.88;;;4.38;;
61840;SDS011;47773;53.174;6.614;2023-08-07T13:46:51;26.92;;;4.30;;
61840;SDS011;47773;53.174;6.614;2023-08-07T13:49:16;21.15;;;3.88;;
61840;SDS011;47773;53.174;6.614;2023-08-07T13:51:42;22.33;;;4.97;;
61840;SDS011;47773;53.174;6.614;2023-08-07T13:54:08;23.35;;;4.35;;
61840;SDS011;47773;53.174;6.614;2023-08-07T13:56:34;22.20;;;4.43;;
61840;SDS011;47773;53.174;6.614;2023-08-07T13:59:00;35.03;;;5.20;;
61840;SDS011;47773;53.174;6.614;2023-08-07T14:01:26;20.90;;;4.20;;
61840;SDS011;47773;53.174;6.614;2023-08-07T14:03:53;21.92;;;5.00;;
61840;SDS011;47773;53.174;6.614;2023-08-07T14:06:19;21.65;;;5.00;;
61840;SDS011;47773;53.174;6.614;2023-08-07T14:08:45;21.52;;;4.30;;
61840;SDS011;47773;53.174;6.614;2023-08-07T14:11:11;23.90;;;4.05;;
61840;SDS011;47773;53.174;6.614;2023-08-07T14:13:39;20.48;;;4.05;;
61840;SDS011;47773;53.174;6.614;2023-08-07T14:16:05;27.15;;;4.13;;
61840;SDS011;47773;53.174;6.614;2023-08-07T14:18:32;16.88;;;4.38;;
61840;SDS011;47773;53.174;6.614;2023-08-07T14:20:57;18.35;;;3.67;;
61840;SDS011;47773;53.174;6.614;2023-08-07T14:23:23;19.77;;;4.57;;
61840;SDS011;47773;53.174;6.614;2023-08-07T14:25:51;27.42;;;4.28;;
61840;SDS011;47773;53.174;6.614;2023-08-07T14:28:18;25.80;;;4.28;;
61840;SDS011;47773;53.174;6.614;2023-08-07T14:30:44;19.75;;;4.35;;
61840;SDS011;47773;53.174;6.614;2023-08-07T14:33:10;19.50;;;4.38;;
61840;SDS011;47773;53.174;6.614;2023-08-07T14:35:36;25.55;;;4.35;;
61840;SDS011;47773;53.174;6.614;2023-08-07T14:38:01;24.20;;;3.63;;
61840;SDS011;47773;53.174;6.614;2023-08-07T14:40:27;18.65;;;3.85;;
61840;SDS011;47773;53.174;6.614;2023-08-07T14:42:53;23.08;;;3.40;;
61840;SDS011;47773;53.174;6.614;2023-08-07T14:45:20;18.17;;;3.08;;
61840;SDS011;47773;53.174;6.614;2023-08-07T14:47:46;19.70;;;3.70;;
61840;SDS011;47773;53.174;6.614;2023-08-07T14:50:12;17.83;;;4.00;;